sensor_id;sensor_type;location;lat;lon;timestamp;P1;durP1;ratioP1;P2;durP2;ratioP2
55067;SDS011;40965;52.368;9.712;2023-02-28T00:04:51;7.68;;;4.15;;
55067;SDS011;40965;52.368;9.712;2023-02-28T00:10:48;5.18;;;2.85;;
55067;SDS011;40965;52.368;9.712;2023-02-28T00:13:15;4.68;;;3.03;;
55067;SDS011;40965;52.368;9.712;2023-02-28T00:15:42;3.35;;;2.28;;
55067;SDS011;40965;52.368;9.712;2023-02-28T00:18:10;7.00;;;3.80;;
55067;SDS011;40965;52.368;9.712;2023-02-28T00:20:36;6.90;;;3.30;;
55067;SDS011;40965;52.368;9.712;2023-02-28T00:23:03;4.75;;;2.90;;
55067;SDS011;40965;52.368;9.712;2023-02-28T00:25:30;4.32;;;3.42;;
55067;SDS011;40965;52.368;9.712;2023-02-28T00:27:56;4.85;;;3.42;;
55067;SDS011;40965;52.368;9.712;2023-02-28T00:30:23;4.95;;;2.88;;
55067;SDS011;40965;52.368;9.712;2023-02-28T00:32:50;9.27;;;2.67;;
55067;SDS011;40965;52.368;9.712;2023-02-28T00:35:17;4.45;;;2.38;;
55067;SDS011;40965;52.368;9.712;2023-02-28T00:37:43;8.02;;;3.10;;
55067;SDS011;40965;52.368;9.712;2023-02-28T00:40:10;4.00;;;3.13;;
55067;SDS011;40965;52.368;9.712;2023-02-28T00:42:38;5.88;;;2.60;;
55067;SDS011;40965;52.368;9.712;2023-02-28T00:45:05;5.82;;;2.70;;
55067;SDS011;40965;52.368;9.712;2023-02-28T00:47:33;5.55;;;2.45;;
55067;SDS011;40965;52.368;9.712;2023-02-28T00:49:59;4.40;;;2.70;;
55067;SDS011;40965;52.368;9.712;2023-02-28T00:52:26;3.45;;;2.17;;
55067;SDS011;40965;52.368;9.712;2023-02-28T00:54:53;3.22;;;2.35;;
55067;SDS011;40965;52.368;9.712;2023-02-28T00:57:23;8.02;;;3.33;;
55067;SDS011;40965;52.368;9.712;2023-02-28T00:59:50;4.35;;;2.33;;
55067;SDS011;40965;52.368;9.712;2023-02-28T01:02:18;3.63;;;2.67;;
55067;SDS011;40965;52.368;9.712;2023-02-28T01:04:47;2.95;;;2.10;;
55067;SDS011;40965;52.368;9.712;2023-02-28T01:07:13;2.75;;;2.20;;
55067;SDS011;40965;52.368;9.712;2023-02-28T01:09:40;3.88;;;2.80;;
55067;SDS011;40965;52.368;9.712;2023-02-28T01:12:07;2.50;;;2.17;;
55067;SDS011;40965;52.368;9.712;2023-02-28T01:14:35;3.38;;;3.08;;
55067;SDS011;40965;52.368;9.712;2023-02-28T01:17:01;4.28;;;3.00;;
55067;SDS011;40965;52.368;9.712;2023-02-28T01:19:29;2.80;;;2.53;;
55067;SDS011;40965;52.368;9.712;2023-02-28T01:21:56;3.95;;;2.30;;
55067;SDS011;40965;52.368;9.712;2023-02-28T01:24:22;4.18;;;2.58;;
55067;SDS011;40965;52.368;9.712;2023-02-28T01:26:49;3.17;;;2.78;;
55067;SDS011;40965;52.368;9.712;2023-02-28T01:29:15;3.03;;;2.70;;
55067;SDS011;40965;52.368;9.712;2023-02-28T01:31:42;2.92;;;2.10;;
55067;SDS011;40965;52.368;9.712;2023-02-28T01:34:08;4.10;;;3.22;;
55067;SDS011;40965;52.368;9.712;2023-02-28T01:36:35;5.47;;;3.33;;
55067;SDS011;40965;52.368;9.712;2023-02-28T01:39:02;6.05;;;3.30;;
55067;SDS011;40965;52.368;9.712;2023-02-28T01:41:29;3.53;;;2.22;;
55067;SDS011;40965;52.368;9.712;2023-02-28T01:44:00;3.17;;;2.80;;
55067;SDS011;40965;52.368;9.712;2023-02-28T01:46:33;4.15;;;3.47;;
55067;SDS011;40965;52.368;9.712;2023-02-28T01:49:04;3.00;;;2.50;;
55067;SDS011;40965;52.368;9.712;2023-02-28T01:54:16;3.72;;;2.63;;
55067;SDS011;40965;52.368;9.712;2023-02-28T01:57:05;8.52;;;2.70;;
55067;SDS011;40965;52.368;9.712;2023-02-28T01:59:39;4.50;;;3.08;;
55067;SDS011;40965;52.368;9.712;2023-02-28T02:02:12;4.10;;;3.10;;
55067;SDS011;40965;52.368;9.712;2023-02-28T02:04:41;6.15;;;3.35;;
55067;SDS011;40965;52.368;9.712;2023-02-28T02:07:24;2.90;;;2.53;;
55067;SDS011;40965;52.368;9.712;2023-02-28T02:09:59;4.38;;;3.00;;
55067;SDS011;40965;52.368;9.712;2023-02-28T02:12:35;4.93;;;3.42;;
55067;SDS011;40965;52.368;9.712;2023-02-28T02:21:09;4.80;;;2.95;;
55067;SDS011;40965;52.368;9.712;2023-02-28T02:33:23;7.60;;;4.40;;
55067;SDS011;40965;52.368;9.712;2023-02-28T02:36:35;7.97;;;3.70;;
55067;SDS011;40965;52.368;9.712;2023-02-28T02:42:00;6.78;;;3.55;;
55067;SDS011;40965;52.368;9.712;2023-02-28T02:47:44;9.48;;;4.13;;
55067;SDS011;40965;52.368;9.712;2023-02-28T02:50:12;4.38;;;2.90;;
55067;SDS011;40965;52.368;9.712;2023-02-28T02:52:48;6.72;;;4.38;;
55067;SDS011;40965;52.368;9.712;2023-02-28T02:55:20;6.93;;;4.53;;
55067;SDS011;40965;52.368;9.712;2023-02-28T02:57:51;8.48;;;4.20;;
55067;SDS011;40965;52.368;9.712;2023-02-28T03:00:23;5.68;;;4.18;;
55067;SDS011;40965;52.368;9.712;2023-02-28T03:05:24;9.68;;;5.00;;
55067;SDS011;40965;52.368;9.712;2023-02-28T03:07:55;9.73;;;4.95;;
55067;SDS011;40965;52.368;9.712;2023-02-28T03:10:29;6.80;;;5.70;;
55067;SDS011;40965;52.368;9.712;2023-02-28T03:16:03;8.07;;;5.05;;
55067;SDS011;40965;52.368;9.712;2023-02-28T03:19:02;12.07;;;6.50;;
55067;SDS011;40965;52.368;9.712;2023-02-28T03:24:58;8.38;;;5.25;;
55067;SDS011;40965;52.368;9.712;2023-02-28T03:27:48;11.07;;;5.32;;
55067;SDS011;40965;52.368;9.712;2023-02-28T03:33:20;9.27;;;5.75;;
55067;SDS011;40965;52.368;9.712;2023-02-28T03:35:56;7.53;;;4.63;;
55067;SDS011;40965;52.368;9.712;2023-02-28T03:38:33;9.73;;;6.50;;
55067;SDS011;40965;52.368;9.712;2023-02-28T03:41:27;8.73;;;5.38;;
55067;SDS011;40965;52.368;9.712;2023-02-28T03:44:12;11.23;;;6.85;;
55067;SDS011;40965;52.368;9.712;2023-02-28T03:46:48;11.50;;;6.50;;
55067;SDS011;40965;52.368;9.712;2023-02-28T03:49:36;9.90;;;5.38;;
55067;SDS011;40965;52.368;9.712;2023-02-28T03:52:27;9.13;;;5.00;;
55067;SDS011;40965;52.368;9.712;2023-02-28T03:55:02;7.22;;;5.40;;
55067;SDS011;40965;52.368;9.712;2023-02-28T04:00:28;8.70;;;5.35;;
55067;SDS011;40965;52.368;9.712;2023-02-28T04:03:01;7.88;;;5.03;;
55067;SDS011;40965;52.368;9.712;2023-02-28T04:05:28;12.55;;;6.45;;
55067;SDS011;40965;52.368;9.712;2023-02-28T04:08:05;11.05;;;6.88;;
55067;SDS011;40965;52.368;9.712;2023-02-28T04:10:41;9.25;;;6.03;;
55067;SDS011;40965;52.368;9.712;2023-02-28T04:13:31;10.32;;;5.38;;
55067;SDS011;40965;52.368;9.712;2023-02-28T04:16:00;9.13;;;5.82;;
55067;SDS011;40965;52.368;9.712;2023-02-28T04:18:42;8.82;;;4.88;;
55067;SDS011;40965;52.368;9.712;2023-02-28T04:21:49;7.72;;;5.15;;
55067;SDS011;40965;52.368;9.712;2023-02-28T04:24:23;9.95;;;5.30;;
55067;SDS011;40965;52.368;9.712;2023-02-28T04:26:56;6.13;;;4.05;;
55067;SDS011;40965;52.368;9.712;2023-02-28T04:29:26;7.97;;;4.90;;
55067;SDS011;40965;52.368;9.712;2023-02-28T04:31:58;10.53;;;5.60;;
55067;SDS011;40965;52.368;9.712;2023-02-28T04:34:42;8.85;;;5.32;;
55067;SDS011;40965;52.368;9.712;2023-02-28T04:37:11;9.60;;;5.40;;
55067;SDS011;40965;52.368;9.712;2023-02-28T04:39:45;7.57;;;4.95;;
55067;SDS011;40965;52.368;9.712;2023-02-28T04:42:16;12.27;;;5.35;;
55067;SDS011;40965;52.368;9.712;2023-02-28T04:44:48;6.90;;;4.85;;
55067;SDS011;40965;52.368;9.712;2023-02-28T04:47:23;7.75;;;5.55;;
55067;SDS011;40965;52.368;9.712;2023-02-28T04:49:50;7.45;;;6.18;;
55067;SDS011;40965;52.368;9.712;2023-02-28T04:52:18;8.57;;;5.38;;
55067;SDS011;40965;52.368;9.712;2023-02-28T04:55:02;8.15;;;5.72;;
55067;SDS011;40965;52.368;9.712;2023-02-28T04:57:33;9.85;;;5.43;;
55067;SDS011;40965;52.368;9.712;2023-02-28T05:00:26;8.55;;;5.70;;
55067;SDS011;40965;52.368;9.712;2023-02-28T05:02:56;7.07;;;4.68;;
55067;SDS011;40965;52.368;9.712;2023-02-28T05:05:28;7.93;;;4.22;;
55067;SDS011;40965;52.368;9.712;2023-02-28T05:07:57;6.80;;;5.47;;
55067;SDS011;40965;52.368;9.712;2023-02-28T05:10:31;7.43;;;4.90;;
55067;SDS011;40965;52.368;9.712;2023-02-28T05:12:58;6.72;;;4.22;;
55067;SDS011;40965;52.368;9.712;2023-02-28T05:15:35;6.10;;;4.35;;
55067;SDS011;40965;52.368;9.712;2023-02-28T05:18:16;5.95;;;4.18;;
55067;SDS011;40965;52.368;9.712;2023-02-28T05:20:44;7.93;;;4.80;;
55067;SDS011;40965;52.368;9.712;2023-02-28T05:23:12;9.60;;;4.63;;
55067;SDS011;40965;52.368;9.712;2023-02-28T05:25:40;8.00;;;5.13;;
55067;SDS011;40965;52.368;9.712;2023-02-28T05:28:07;10.10;;;5.15;;
55067;SDS011;40965;52.368;9.712;2023-02-28T05:30:34;5.93;;;4.70;;
55067;SDS011;40965;52.368;9.712;2023-02-28T05:33:04;7.65;;;5.20;;
55067;SDS011;40965;52.368;9.712;2023-02-28T05:35:31;6.50;;;4.90;;
55067;SDS011;40965;52.368;9.712;2023-02-28T05:37:58;8.10;;;4.25;;
55067;SDS011;40965;52.368;9.712;2023-02-28T05:40:24;7.28;;;4.57;;
55067;SDS011;40965;52.368;9.712;2023-02-28T05:42:51;10.95;;;6.35;;
55067;SDS011;40965;52.368;9.712;2023-02-28T05:45:18;19.50;;;7.47;;
55067;SDS011;40965;52.368;9.712;2023-02-28T05:47:45;18.35;;;9.15;;
55067;SDS011;40965;52.368;9.712;2023-02-28T05:50:11;23.13;;;10.98;;
55067;SDS011;40965;52.368;9.712;2023-02-28T05:52:38;17.90;;;8.48;;
55067;SDS011;40965;52.368;9.712;2023-02-28T05:55:04;8.30;;;6.20;;
55067;SDS011;40965;52.368;9.712;2023-02-28T05:57:32;14.07;;;6.50;;
55067;SDS011;40965;52.368;9.712;2023-02-28T05:59:58;9.57;;;6.03;;
55067;SDS011;40965;52.368;9.712;2023-02-28T06:02:24;11.15;;;6.20;;
55067;SDS011;40965;52.368;9.712;2023-02-28T06:04:51;7.97;;;5.20;;
55067;SDS011;40965;52.368;9.712;2023-02-28T06:07:18;11.75;;;5.15;;
55067;SDS011;40965;52.368;9.712;2023-02-28T06:09:44;10.23;;;5.38;;
55067;SDS011;40965;52.368;9.712;2023-02-28T06:12:20;10.02;;;4.95;;
55067;SDS011;40965;52.368;9.712;2023-02-28T06:14:46;9.32;;;5.20;;
55067;SDS011;40965;52.368;9.712;2023-02-28T06:17:13;13.43;;;6.90;;
55067;SDS011;40965;52.368;9.712;2023-02-28T06:19:39;10.40;;;6.15;;
55067;SDS011;40965;52.368;9.712;2023-02-28T06:22:07;8.90;;;6.60;;
55067;SDS011;40965;52.368;9.712;2023-02-28T06:24:33;19.67;;;9.38;;
55067;SDS011;40965;52.368;9.712;2023-02-28T06:27:00;10.25;;;5.43;;
55067;SDS011;40965;52.368;9.712;2023-02-28T06:29:30;10.98;;;6.25;;
55067;SDS011;40965;52.368;9.712;2023-02-28T06:31:58;12.38;;;6.18;;
55067;SDS011;40965;52.368;9.712;2023-02-28T06:34:24;11.40;;;5.60;;
55067;SDS011;40965;52.368;9.712;2023-02-28T06:36:51;12.18;;;6.10;;
55067;SDS011;40965;52.368;9.712;2023-02-28T06:39:18;7.93;;;5.93;;
55067;SDS011;40965;52.368;9.712;2023-02-28T06:41:46;10.80;;;6.07;;
55067;SDS011;40965;52.368;9.712;2023-02-28T06:44:14;6.15;;;5.10;;
55067;SDS011;40965;52.368;9.712;2023-02-28T06:46:43;8.35;;;6.43;;
55067;SDS011;40965;52.368;9.712;2023-02-28T06:49:11;10.93;;;5.80;;
55067;SDS011;40965;52.368;9.712;2023-02-28T06:51:39;10.63;;;6.10;;
55067;SDS011;40965;52.368;9.712;2023-02-28T06:54:10;10.60;;;5.18;;
55067;SDS011;40965;52.368;9.712;2023-02-28T06:56:37;8.73;;;6.55;;
55067;SDS011;40965;52.368;9.712;2023-02-28T06:59:04;11.63;;;6.97;;
55067;SDS011;40965;52.368;9.712;2023-02-28T07:01:31;10.45;;;5.47;;
55067;SDS011;40965;52.368;9.712;2023-02-28T07:03:58;9.15;;;6.10;;
55067;SDS011;40965;52.368;9.712;2023-02-28T07:06:26;7.45;;;5.82;;
55067;SDS011;40965;52.368;9.712;2023-02-28T07:08:53;11.15;;;6.65;;
55067;SDS011;40965;52.368;9.712;2023-02-28T07:11:22;8.13;;;5.10;;
55067;SDS011;40965;52.368;9.712;2023-02-28T07:13:54;10.73;;;7.07;;
55067;SDS011;40965;52.368;9.712;2023-02-28T07:16:23;8.57;;;5.78;;
55067;SDS011;40965;52.368;9.712;2023-02-28T07:18:53;10.32;;;5.75;;
55067;SDS011;40965;52.368;9.712;2023-02-28T07:21:20;11.32;;;6.82;;
55067;SDS011;40965;52.368;9.712;2023-02-28T07:23:47;10.20;;;6.60;;
55067;SDS011;40965;52.368;9.712;2023-02-28T07:26:14;9.73;;;4.80;;
55067;SDS011;40965;52.368;9.712;2023-02-28T07:28:46;9.02;;;6.15;;
55067;SDS011;40965;52.368;9.712;2023-02-28T07:31:14;8.85;;;5.18;;
55067;SDS011;40965;52.368;9.712;2023-02-28T07:33:42;5.97;;;4.13;;
55067;SDS011;40965;52.368;9.712;2023-02-28T07:36:10;11.00;;;5.00;;
55067;SDS011;40965;52.368;9.712;2023-02-28T07:38:40;3.92;;;3.47;;
55067;SDS011;40965;52.368;9.712;2023-02-28T07:41:11;6.40;;;4.38;;
55067;SDS011;40965;52.368;9.712;2023-02-28T07:43:40;9.82;;;4.82;;
55067;SDS011;40965;52.368;9.712;2023-02-28T07:46:08;7.57;;;3.95;;
55067;SDS011;40965;52.368;9.712;2023-02-28T07:48:37;7.28;;;3.85;;
55067;SDS011;40965;52.368;9.712;2023-02-28T07:51:04;7.70;;;4.18;;
55067;SDS011;40965;52.368;9.712;2023-02-28T07:53:31;8.52;;;3.03;;
55067;SDS011;40965;52.368;9.712;2023-02-28T07:55:59;7.55;;;3.95;;
55067;SDS011;40965;52.368;9.712;2023-02-28T07:58:30;8.00;;;4.80;;
55067;SDS011;40965;52.368;9.712;2023-02-28T08:00:57;6.88;;;4.43;;
55067;SDS011;40965;52.368;9.712;2023-02-28T08:03:37;5.03;;;3.33;;
55067;SDS011;40965;52.368;9.712;2023-02-28T08:06:06;8.93;;;3.70;;
55067;SDS011;40965;52.368;9.712;2023-02-28T08:08:34;9.18;;;3.60;;
55067;SDS011;40965;52.368;9.712;2023-02-28T08:11:01;8.32;;;4.78;;
55067;SDS011;40965;52.368;9.712;2023-02-28T08:13:29;6.75;;;4.10;;
55067;SDS011;40965;52.368;9.712;2023-02-28T08:15:56;9.40;;;4.47;;
55067;SDS011;40965;52.368;9.712;2023-02-28T08:18:23;6.78;;;4.07;;
55067;SDS011;40965;52.368;9.712;2023-02-28T08:20:49;4.70;;;3.50;;
55067;SDS011;40965;52.368;9.712;2023-02-28T08:23:18;7.35;;;3.55;;
55067;SDS011;40965;52.368;9.712;2023-02-28T08:25:44;5.88;;;3.55;;
55067;SDS011;40965;52.368;9.712;2023-02-28T08:31:57;4.60;;;3.22;;
55067;SDS011;40965;52.368;9.712;2023-02-28T08:34:25;9.68;;;3.10;;
55067;SDS011;40965;52.368;9.712;2023-02-28T08:36:51;6.35;;;3.60;;
55067;SDS011;40965;52.368;9.712;2023-02-28T08:39:18;5.25;;;3.10;;
55067;SDS011;40965;52.368;9.712;2023-02-28T08:41:45;10.20;;;3.63;;
55067;SDS011;40965;52.368;9.712;2023-02-28T08:44:11;4.07;;;3.13;;
55067;SDS011;40965;52.368;9.712;2023-02-28T08:46:37;7.07;;;2.92;;
55067;SDS011;40965;52.368;9.712;2023-02-28T08:49:04;5.38;;;3.08;;
55067;SDS011;40965;52.368;9.712;2023-02-28T08:51:32;5.00;;;2.53;;
55067;SDS011;40965;52.368;9.712;2023-02-28T08:53:59;5.13;;;3.42;;
55067;SDS011;40965;52.368;9.712;2023-02-28T08:56:27;7.40;;;3.00;;
55067;SDS011;40965;52.368;9.712;2023-02-28T08:58:59;4.07;;;2.50;;
55067;SDS011;40965;52.368;9.712;2023-02-28T09:01:27;4.53;;;1.83;;
55067;SDS011;40965;52.368;9.712;2023-02-28T09:03:56;4.90;;;1.55;;
55067;SDS011;40965;52.368;9.712;2023-02-28T09:06:24;2.30;;;1.58;;
55067;SDS011;40965;52.368;9.712;2023-02-28T09:08:55;2.67;;;2.00;;
55067;SDS011;40965;52.368;9.712;2023-02-28T09:11:24;2.67;;;1.85;;
55067;SDS011;40965;52.368;9.712;2023-02-28T09:13:51;8.13;;;2.72;;
55067;SDS011;40965;52.368;9.712;2023-02-28T09:16:20;4.38;;;1.67;;
55067;SDS011;40965;52.368;9.712;2023-02-28T09:18:47;2.42;;;1.27;;
55067;SDS011;40965;52.368;9.712;2023-02-28T09:21:15;6.32;;;3.88;;
55067;SDS011;40965;52.368;9.712;2023-02-28T09:23:44;4.28;;;2.30;;
55067;SDS011;40965;52.368;9.712;2023-02-28T09:26:26;1.63;;;1.50;;
55067;SDS011;40965;52.368;9.712;2023-02-28T09:28:54;1.88;;;1.58;;
55067;SDS011;40965;52.368;9.712;2023-02-28T09:31:24;4.80;;;3.03;;
55067;SDS011;40965;52.368;9.712;2023-02-28T09:33:54;2.67;;;1.40;;
55067;SDS011;40965;52.368;9.712;2023-02-28T09:36:24;4.55;;;2.30;;
55067;SDS011;40965;52.368;9.712;2023-02-28T09:39:00;2.30;;;1.85;;
55067;SDS011;40965;52.368;9.712;2023-02-28T09:41:35;2.03;;;1.48;;
55067;SDS011;40965;52.368;9.712;2023-02-28T09:44:13;2.15;;;1.70;;
55067;SDS011;40965;52.368;9.712;2023-02-28T09:46:52;5.47;;;1.73;;
55067;SDS011;40965;52.368;9.712;2023-02-28T09:49:25;2.10;;;1.25;;
55067;SDS011;40965;52.368;9.712;2023-02-28T09:52:03;3.47;;;1.40;;
55067;SDS011;40965;52.368;9.712;2023-02-28T09:54:34;1.90;;;1.80;;
55067;SDS011;40965;52.368;9.712;2023-02-28T10:00:02;3.72;;;1.38;;
55067;SDS011;40965;52.368;9.712;2023-02-28T10:02:55;3.08;;;1.38;;
55067;SDS011;40965;52.368;9.712;2023-02-28T10:06:20;1.40;;;1.27;;
55067;SDS011;40965;52.368;9.712;2023-02-28T10:08:56;7.18;;;4.07;;
55067;SDS011;40965;52.368;9.712;2023-02-28T10:11:33;5.28;;;1.73;;
55067;SDS011;40965;52.368;9.712;2023-02-28T10:17:12;1.98;;;1.40;;
55067;SDS011;40965;52.368;9.712;2023-02-28T10:19:53;1.27;;;0.90;;
55067;SDS011;40965;52.368;9.712;2023-02-28T10:22:41;3.33;;;1.02;;
55067;SDS011;40965;52.368;9.712;2023-02-28T10:25:24;1.42;;;0.85;;
55067;SDS011;40965;52.368;9.712;2023-02-28T10:27:54;1.23;;;0.95;;
55067;SDS011;40965;52.368;9.712;2023-02-28T10:30:33;1.08;;;1.02;;
55067;SDS011;40965;52.368;9.712;2023-02-28T10:33:02;2.40;;;0.85;;
55067;SDS011;40965;52.368;9.712;2023-02-28T10:35:31;0.70;;;0.70;;
55067;SDS011;40965;52.368;9.712;2023-02-28T10:37:59;3.60;;;0.98;;
55067;SDS011;40965;52.368;9.712;2023-02-28T10:40:32;1.75;;;0.80;;
55067;SDS011;40965;52.368;9.712;2023-02-28T10:45:34;4.03;;;1.25;;
55067;SDS011;40965;52.368;9.712;2023-02-28T10:48:04;1.85;;;0.85;;
55067;SDS011;40965;52.368;9.712;2023-02-28T10:50:57;0.55;;;0.55;;
55067;SDS011;40965;52.368;9.712;2023-02-28T10:58:47;0.85;;;0.35;;
55067;SDS011;40965;52.368;9.712;2023-02-28T11:01:34;0.68;;;0.60;;
55067;SDS011;40965;52.368;9.712;2023-02-28T11:04:03;1.85;;;1.02;;
55067;SDS011;40965;52.368;9.712;2023-02-28T11:06:44;0.68;;;0.68;;
55067;SDS011;40965;52.368;9.712;2023-02-28T11:09:26;2.38;;;0.65;;
55067;SDS011;40965;52.368;9.712;2023-02-28T11:11:59;1.50;;;0.80;;
55067;SDS011;40965;52.368;9.712;2023-02-28T11:14:29;0.47;;;0.38;;
55067;SDS011;40965;52.368;9.712;2023-02-28T11:17:23;0.82;;;0.45;;
55067;SDS011;40965;52.368;9.712;2023-02-28T11:19:53;1.10;;;0.40;;
55067;SDS011;40965;52.368;9.712;2023-02-28T11:22:27;0.40;;;0.40;;
55067;SDS011;40965;52.368;9.712;2023-02-28T11:25:19;1.52;;;0.70;;
55067;SDS011;40965;52.368;9.712;2023-02-28T11:27:54;1.35;;;0.60;;
55067;SDS011;40965;52.368;9.712;2023-02-28T11:32:59;1.10;;;0.50;;
55067;SDS011;40965;52.368;9.712;2023-02-28T11:35:35;1.63;;;0.90;;
55067;SDS011;40965;52.368;9.712;2023-02-28T11:38:05;1.92;;;0.47;;
55067;SDS011;40965;52.368;9.712;2023-02-28T11:40:58;0.82;;;0.60;;
55067;SDS011;40965;52.368;9.712;2023-02-28T11:43:46;1.85;;;1.02;;
55067;SDS011;40965;52.368;9.712;2023-02-28T11:46:34;3.30;;;0.82;;
55067;SDS011;40965;52.368;9.712;2023-02-28T11:54:59;1.00;;;0.40;;
55067;SDS011;40965;52.368;9.712;2023-02-28T12:04:04;2.13;;;1.00;;
55067;SDS011;40965;52.368;9.712;2023-02-28T12:06:53;0.93;;;0.80;;
55067;SDS011;40965;52.368;9.712;2023-02-28T12:12:40;1.35;;;1.10;;
55067;SDS011;40965;52.368;9.712;2023-02-28T12:15:41;5.25;;;1.13;;
55067;SDS011;40965;52.368;9.712;2023-02-28T12:18:44;4.20;;;1.13;;
55067;SDS011;40965;52.368;9.712;2023-02-28T12:27:13;3.95;;;1.27;;
55067;SDS011;40965;52.368;9.712;2023-02-28T12:29:50;4.40;;;1.75;;
55067;SDS011;40965;52.368;9.712;2023-02-28T12:32:56;4.15;;;0.98;;
55067;SDS011;40965;52.368;9.712;2023-02-28T12:35:51;1.38;;;1.20;;
55067;SDS011;40965;52.368;9.712;2023-02-28T12:38:22;1.45;;;1.15;;
55067;SDS011;40965;52.368;9.712;2023-02-28T12:41:00;0.70;;;0.70;;
55067;SDS011;40965;52.368;9.712;2023-02-28T12:43:33;0.82;;;0.82;;
55067;SDS011;40965;52.368;9.712;2023-02-28T12:46:29;2.13;;;1.00;;
55067;SDS011;40965;52.368;9.712;2023-02-28T12:49:10;2.17;;;0.90;;
55067;SDS011;40965;52.368;9.712;2023-02-28T12:51:44;1.48;;;1.00;;
55067;SDS011;40965;52.368;9.712;2023-02-28T12:54:19;0.82;;;0.82;;
55067;SDS011;40965;52.368;9.712;2023-02-28T12:57:01;1.52;;;0.73;;
55067;SDS011;40965;52.368;9.712;2023-02-28T12:59:48;2.30;;;1.00;;
55067;SDS011;40965;52.368;9.712;2023-02-28T13:05:38;1.08;;;1.00;;
55067;SDS011;40965;52.368;9.712;2023-02-28T13:08:24;1.70;;;1.42;;
55067;SDS011;40965;52.368;9.712;2023-02-28T13:11:38;3.03;;;2.25;;
55067;SDS011;40965;52.368;9.712;2023-02-28T13:14:21;1.67;;;1.45;;
55067;SDS011;40965;52.368;9.712;2023-02-28T13:19:37;1.98;;;1.40;;
55067;SDS011;40965;52.368;9.712;2023-02-28T13:22:16;1.67;;;1.58;;
55067;SDS011;40965;52.368;9.712;2023-02-28T13:24:52;2.03;;;1.50;;
55067;SDS011;40965;52.368;9.712;2023-02-28T13:27:24;1.60;;;1.48;;
55067;SDS011;40965;52.368;9.712;2023-02-28T13:29:59;1.77;;;1.45;;
55067;SDS011;40965;52.368;9.712;2023-02-28T13:32:32;3.08;;;1.73;;
55067;SDS011;40965;52.368;9.712;2023-02-28T13:37:32;5.00;;;1.98;;
55067;SDS011;40965;52.368;9.712;2023-02-28T13:40:28;3.03;;;2.53;;
55067;SDS011;40965;52.368;9.712;2023-02-28T13:43:02;2.65;;;1.65;;
55067;SDS011;40965;52.368;9.712;2023-02-28T13:45:34;4.72;;;2.13;;
55067;SDS011;40965;52.368;9.712;2023-02-28T13:48:17;2.90;;;1.95;;
55067;SDS011;40965;52.368;9.712;2023-02-28T13:50:51;1.85;;;1.63;;
55067;SDS011;40965;52.368;9.712;2023-02-28T13:53:28;5.13;;;2.10;;
55067;SDS011;40965;52.368;9.712;2023-02-28T13:56:23;2.75;;;1.30;;
55067;SDS011;40965;52.368;9.712;2023-02-28T14:02:35;3.13;;;1.58;;
55067;SDS011;40965;52.368;9.712;2023-02-28T14:07:57;2.10;;;1.75;;
55067;SDS011;40965;52.368;9.712;2023-02-28T14:10:38;3.38;;;1.60;;
55067;SDS011;40965;52.368;9.712;2023-02-28T14:16:01;4.78;;;1.77;;
55067;SDS011;40965;52.368;9.712;2023-02-28T14:18:34;2.22;;;1.52;;
55067;SDS011;40965;52.368;9.712;2023-02-28T14:21:11;1.45;;;1.35;;
55067;SDS011;40965;52.368;9.712;2023-02-28T14:23:57;1.60;;;1.60;;
55067;SDS011;40965;52.368;9.712;2023-02-28T14:35:03;1.30;;;1.13;;
55067;SDS011;40965;52.368;9.712;2023-02-28T14:38:04;2.67;;;1.33;;
55067;SDS011;40965;52.368;9.712;2023-02-28T14:40:37;3.05;;;1.50;;
55067;SDS011;40965;52.368;9.712;2023-02-28T14:43:05;3.35;;;1.90;;
55067;SDS011;40965;52.368;9.712;2023-02-28T14:45:48;2.03;;;1.80;;
55067;SDS011;40965;52.368;9.712;2023-02-28T14:48:18;1.83;;;1.33;;
55067;SDS011;40965;52.368;9.712;2023-02-28T14:50:56;3.25;;;1.58;;
55067;SDS011;40965;52.368;9.712;2023-02-28T14:53:26;2.03;;;1.77;;
55067;SDS011;40965;52.368;9.712;2023-02-28T14:55:56;1.60;;;1.50;;
55067;SDS011;40965;52.368;9.712;2023-02-28T14:58:27;4.13;;;1.95;;
55067;SDS011;40965;52.368;9.712;2023-02-28T15:00:58;2.42;;;2.15;;
55067;SDS011;40965;52.368;9.712;2023-02-28T15:06:14;2.22;;;1.38;;
55067;SDS011;40965;52.368;9.712;2023-02-28T15:08:43;1.77;;;1.38;;
55067;SDS011;40965;52.368;9.712;2023-02-28T15:11:14;2.25;;;2.05;;
55067;SDS011;40965;52.368;9.712;2023-02-28T15:13:47;2.53;;;1.65;;
55067;SDS011;40965;52.368;9.712;2023-02-28T15:18:52;1.45;;;1.33;;
55067;SDS011;40965;52.368;9.712;2023-02-28T15:21:23;3.40;;;1.70;;
55067;SDS011;40965;52.368;9.712;2023-02-28T15:26:58;7.07;;;1.85;;
55067;SDS011;40965;52.368;9.712;2023-02-28T15:29:32;1.63;;;1.52;;
55067;SDS011;40965;52.368;9.712;2023-02-28T15:32:20;1.63;;;1.30;;
55067;SDS011;40965;52.368;9.712;2023-02-28T15:34:55;2.63;;;1.23;;
55067;SDS011;40965;52.368;9.712;2023-02-28T15:37:27;4.10;;;1.75;;
55067;SDS011;40965;52.368;9.712;2023-02-28T15:39:57;2.80;;;1.38;;
55067;SDS011;40965;52.368;9.712;2023-02-28T15:42:38;2.33;;;1.20;;
55067;SDS011;40965;52.368;9.712;2023-02-28T15:45:04;2.20;;;1.52;;
55067;SDS011;40965;52.368;9.712;2023-02-28T15:47:32;2.05;;;1.25;;
55067;SDS011;40965;52.368;9.712;2023-02-28T15:50:00;1.60;;;1.20;;
55067;SDS011;40965;52.368;9.712;2023-02-28T15:52:40;2.08;;;1.42;;
55067;SDS011;40965;52.368;9.712;2023-02-28T15:55:20;1.95;;;1.77;;
55067;SDS011;40965;52.368;9.712;2023-02-28T15:57:51;2.40;;;2.03;;
55067;SDS011;40965;52.368;9.712;2023-02-28T16:00:23;2.60;;;1.73;;
55067;SDS011;40965;52.368;9.712;2023-02-28T16:02:52;1.83;;;1.27;;
55067;SDS011;40965;52.368;9.712;2023-02-28T16:05:23;1.75;;;1.35;;
55067;SDS011;40965;52.368;9.712;2023-02-28T16:07:57;1.83;;;1.73;;
55067;SDS011;40965;52.368;9.712;2023-02-28T16:10:40;3.60;;;1.95;;
55067;SDS011;40965;52.368;9.712;2023-02-28T16:13:08;4.57;;;3.58;;
55067;SDS011;40965;52.368;9.712;2023-02-28T16:15:41;3.70;;;1.70;;
55067;SDS011;40965;52.368;9.712;2023-02-28T16:18:12;2.78;;;1.65;;
55067;SDS011;40965;52.368;9.712;2023-02-28T16:20:39;3.33;;;1.98;;
55067;SDS011;40965;52.368;9.712;2023-02-28T16:23:06;3.85;;;1.75;;
55067;SDS011;40965;52.368;9.712;2023-02-28T16:25:34;5.13;;;1.95;;
55067;SDS011;40965;52.368;9.712;2023-02-28T16:28:07;2.33;;;1.83;;
55067;SDS011;40965;52.368;9.712;2023-02-28T16:30:43;4.55;;;1.88;;
55067;SDS011;40965;52.368;9.712;2023-02-28T16:33:11;2.05;;;1.95;;
55067;SDS011;40965;52.368;9.712;2023-02-28T16:35:38;3.40;;;2.10;;
55067;SDS011;40965;52.368;9.712;2023-02-28T16:38:05;4.38;;;2.30;;
55067;SDS011;40965;52.368;9.712;2023-02-28T16:40:33;1.83;;;1.73;;
55067;SDS011;40965;52.368;9.712;2023-02-28T16:43:01;2.65;;;1.85;;
55067;SDS011;40965;52.368;9.712;2023-02-28T16:45:34;2.83;;;2.60;;
55067;SDS011;40965;52.368;9.712;2023-02-28T16:48:00;3.00;;;2.80;;
55067;SDS011;40965;52.368;9.712;2023-02-28T16:50:28;14.13;;;7.93;;
55067;SDS011;40965;52.368;9.712;2023-02-28T16:52:57;5.43;;;1.90;;
55067;SDS011;40965;52.368;9.712;2023-02-28T16:55:25;1.90;;;1.80;;
55067;SDS011;40965;52.368;9.712;2023-02-28T16:57:53;6.43;;;3.17;;
55067;SDS011;40965;52.368;9.712;2023-02-28T17:00:23;3.50;;;2.63;;
55067;SDS011;40965;52.368;9.712;2023-02-28T17:02:51;3.22;;;1.80;;
55067;SDS011;40965;52.368;9.712;2023-02-28T17:05:18;1.52;;;1.33;;
55067;SDS011;40965;52.368;9.712;2023-02-28T17:07:46;2.20;;;2.00;;
55067;SDS011;40965;52.368;9.712;2023-02-28T17:12:51;3.17;;;2.78;;
55067;SDS011;40965;52.368;9.712;2023-02-28T17:15:18;2.72;;;2.33;;
55067;SDS011;40965;52.368;9.712;2023-02-28T17:17:46;3.60;;;2.10;;
55067;SDS011;40965;52.368;9.712;2023-02-28T17:20:19;4.70;;;2.42;;
55067;SDS011;40965;52.368;9.712;2023-02-28T17:22:51;2.88;;;2.50;;
55067;SDS011;40965;52.368;9.712;2023-02-28T17:25:19;3.15;;;2.28;;